Time;durP1;ratioP1;P1;durP2;ratioP2;P2;SDS_P1;SDS_P2;PMS_P1;PMS_P2;Temp;Humidity;BMP_temperature;BMP_pressure;BME280_temperature;BME280_humidity;BME280_pressure;Samples;Min_cycle;Max_cycle;Signal;HPM_P1;HPM_P2
2023/02/18 00:02:17;;;;;;;1.70;1.20;;;12.70;78.00;;;;;;5028488;28;20429;-77
2023/02/18 00:04:43;;;;;;;1.70;1.40;;;12.70;78.00;;;;;;5016963;28;20224;-77
2023/02/18 00:07:08;;;;;;;1.60;1.37;;;12.70;77.80;;;;;;5014603;28;20182;-75
2023/02/18 00:09:34;;;;;;;1.30;1.20;;;12.70;77.80;;;;;;5019741;28;20178;-76
2023/02/18 00:11:59;;;;;;;1.77;1.37;;;12.70;77.80;;;;;;5039948;28;20188;-76
2023/02/18 00:14:25;;;;;;;2.23;1.40;;;12.70;77.80;;;;;;5046026;28;20240;-77
2023/02/18 00:16:50;;;;;;;1.73;1.33;;;12.70;77.70;;;;;;5037813;28;20786;-76
2023/02/18 00:19:19;;;;;;;2.27;1.37;;;12.70;77.70;;;;;;5042769;28;20270;-77
2023/02/18 00:21:45;;;;;;;1.47;1.07;;;12.70;77.40;;;;;;5041263;28;20205;-78
2023/02/18 00:24:14;;;;;;;1.40;1.10;;;12.70;77.60;;;;;;5034769;28;20455;-77
2023/02/18 00:26:40;;;;;;;2.27;1.30;;;12.70;77.60;;;;;;5025770;28;20456;-77
2023/02/18 00:29:06;;;;;;;1.83;1.30;;;12.70;77.70;;;;;;5029372;28;20423;-75
2023/02/18 00:31:35;;;;;;;2.30;1.50;;;12.70;77.60;;;;;;5035461;28;20423;-77
2023/02/18 00:34:03;;;;;;;3.30;1.17;;;12.70;77.60;;;;;;5041635;28;20237;-76
2023/02/18 00:36:29;;;;;;;2.17;1.27;;;12.70;77.60;;;;;;5042729;28;20428;-78
2023/02/18 00:38:58;;;;;;;1.70;1.13;;;12.70;77.40;;;;;;5052544;28;20426;-78
2023/02/18 00:41:26;;;;;;;2.53;1.27;;;12.70;77.40;;;;;;5058849;28;20726;-77
2023/02/18 00:43:52;;;;;;;2.37;1.37;;;12.70;77.40;;;;;;5057183;28;20456;-76
2023/02/18 00:46:18;;;;;;;2.40;1.50;;;12.70;77.30;;;;;;5025467;28;20439;-76
2023/02/18 00:48:44;;;;;;;1.80;1.30;;;12.70;77.10;;;;;;5035076;28;20181;-77
2023/02/18 00:51:10;;;;;;;2.53;1.53;;;12.70;77.10;;;;;;5035452;28;20672;-79
2023/02/18 00:53:36;;;;;;;1.67;1.30;;;12.70;77.30;;;;;;5015643;28;20228;-77
2023/02/18 00:56:02;;;;;;;2.93;1.27;;;12.60;77.30;;;;;;5037397;28;20430;-77
2023/02/18 00:58:28;;;;;;;2.20;1.47;;;12.60;77.40;;;;;;5036413;28;20415;-77
2023/02/18 01:00:54;;;;;;;1.73;1.30;;;12.60;77.30;;;;;;5038648;28;20471;-77
2023/02/18 01:03:21;;;;;;;1.30;1.10;;;12.60;77.40;;;;;;5035084;28;20473;-79
2023/02/18 01:05:48;;;;;;;1.53;1.13;;;12.60;77.40;;;;;;5032070;28;20435;-80
2023/02/18 01:08:15;;;;;;;2.03;1.40;;;12.70;77.30;;;;;;5029434;28;20489;-76
2023/02/18 01:10:43;;;;;;;3.50;1.30;;;12.60;77.30;;;;;;5035842;28;20416;-77
2023/02/18 01:13:10;;;;;;;2.87;1.57;;;12.60;77.30;;;;;;5030902;28;20426;-78
2023/02/18 01:15:36;;;;;;;2.13;1.70;;;12.60;77.40;;;;;;5035763;28;20458;-77
2023/02/18 01:18:02;;;;;;;3.73;1.47;;;12.70;77.30;;;;;;5035113;28;20420;-78
2023/02/18 01:20:28;;;;;;;2.03;1.37;;;12.70;77.30;;;;;;5017401;28;20518;-78
2023/02/18 01:22:54;;;;;;;2.97;1.73;;;12.70;77.30;;;;;;5016427;28;20420;-77
2023/02/18 01:25:19;;;;;;;3.00;1.77;;;12.70;77.30;;;;;;5029614;28;20220;-78
2023/02/18 01:27:45;;;;;;;1.50;1.40;;;12.70;77.30;;;;;;5049294;28;20706;-78
2023/02/18 01:30:14;;;;;;;2.20;1.60;;;12.60;77.30;;;;;;5041363;28;20201;-77
2023/02/18 01:32:40;;;;;;;2.00;1.40;;;12.60;77.10;;;;;;5041600;28;20319;-77
2023/02/18 01:35:06;;;;;;;2.20;1.80;;;12.60;77.30;;;;;;5030538;28;20460;-77
2023/02/18 01:37:32;;;;;;;2.63;1.70;;;12.60;77.30;;;;;;5009814;28;20205;-77
2023/02/18 01:39:58;;;;;;;2.57;1.60;;;12.50;77.40;;;;;;5033345;28;20786;-77
2023/02/18 01:42:27;;;;;;;3.00;1.63;;;12.60;77.30;;;;;;5015030;28;20447;-76
2023/02/18 01:44:53;;;;;;;2.30;1.60;;;12.50;77.30;;;;;;5031610;28;20464;-76
2023/02/18 01:47:19;;;;;;;2.60;1.33;;;12.50;77.10;;;;;;5023968;28;20428;-77
2023/02/18 01:49:50;;;;;;;2.70;1.90;;;12.50;77.10;;;;;;5035223;28;20470;-77
2023/02/18 01:52:19;;;;;;;1.93;1.33;;;12.50;77.10;;;;;;5016046;28;20440;-77
2023/02/18 01:54:49;;;;;;;2.00;1.70;;;12.50;77.10;;;;;;5031600;28;20463;-77
2023/02/18 01:57:26;;;;;;;3.60;1.90;;;12.50;77.10;;;;;;5033327;28;20809;-77
2023/02/18 01:59:55;;;;;;;1.83;1.47;;;12.50;77.00;;;;;;5033917;28;20433;-77
2023/02/18 02:02:24;;;;;;;2.77;1.90;;;12.50;77.00;;;;;;5045443;28;20469;-76
2023/02/18 02:04:51;;;;;;;2.53;1.50;;;12.50;77.00;;;;;;5035512;28;20838;-76
2023/02/18 02:07:19;;;;;;;3.37;2.30;;;12.50;77.00;;;;;;5022508;28;20445;-76
2023/02/18 02:09:46;;;;;;;2.30;1.93;;;12.50;76.80;;;;;;5037406;28;20428;-77
2023/02/18 02:12:57;;;;;;;3.50;1.77;;;12.50;76.80;;;;;;5017084;28;20424;-76
2023/02/18 02:15:33;;;;;;;1.93;1.70;;;12.50;76.70;;;;;;5025939;28;20467;-78
2023/02/18 02:18:23;;;;;;;4.60;1.97;;;12.50;76.70;;;;;;5032223;28;20473;-77
2023/02/18 02:20:58;;;;;;;2.73;1.93;;;12.50;76.70;;;;;;5028108;28;20506;-79
2023/02/18 02:23:39;;;;;;;2.50;2.00;;;12.50;76.50;;;;;;5034659;28;20457;-78
2023/02/18 02:26:42;;;;;;;1.90;1.67;;;12.50;76.50;;;;;;5031081;28;20416;-77
2023/02/18 02:29:39;;;;;;;3.47;1.80;;;12.50;76.40;;;;;;5014752;28;20450;-79
2023/02/18 02:32:11;;;;;;;4.77;2.00;;;12.50;76.50;;;;;;5015598;28;20527;-78
2023/02/18 02:34:36;;;;;;;2.40;1.90;;;12.50;76.50;;;;;;5011782;28;20459;-78
2023/02/18 02:37:24;;;;;;;2.50;1.80;;;12.50;76.50;;;;;;5032667;28;20953;-76
2023/02/18 02:40:05;;;;;;;4.70;1.80;;;12.50;76.40;;;;;;5028928;28;20212;-77
2023/02/18 02:42:47;;;;;;;3.27;1.73;;;12.50;76.40;;;;;;5032973;28;20548;-77
2023/02/18 02:45:22;;;;;;;3.07;2.00;;;12.50;76.20;;;;;;5007566;28;20459;-77
2023/02/18 02:48:04;;;;;;;4.43;2.43;;;12.50;76.20;;;;;;5032522;28;20423;-77
2023/02/18 02:51:11;;;;;;;2.77;1.60;;;12.50;76.40;;;;;;5037150;28;20414;-79
2023/02/18 02:53:40;;;;;;;3.60;2.20;;;12.40;76.20;;;;;;4995018;28;20452;-77
2023/02/18 02:56:05;;;;;;;5.47;1.97;;;12.40;76.20;;;;;;5035219;28;20944;-78
2023/02/18 02:58:31;;;;;;;2.33;1.80;;;12.50;76.10;;;;;;5041191;28;20432;-78
2023/02/18 03:01:19;;;;;;;3.67;1.93;;;12.50;76.10;;;;;;5037771;28;20209;-79
2023/02/18 03:04:26;;;;;;;3.50;2.17;;;12.50;76.10;;;;;;5007125;28;20208;-78
2023/02/18 03:06:52;;;;;;;4.47;1.60;;;12.50;76.10;;;;;;5032329;28;20447;-77
2023/02/18 03:09:37;;;;;;;2.00;1.60;;;12.50;76.10;;;;;;5055362;28;20424;-77
2023/02/18 03:12:14;;;;;;;3.27;1.93;;;12.50;76.10;;;;;;5022792;28;20173;-78
2023/02/18 03:14:39;;;;;;;2.50;1.63;;;12.50;76.10;;;;;;5026900;28;20456;-77
2023/02/18 03:17:15;;;;;;;2.50;1.63;;;12.50;76.10;;;;;;5031946;28;20417;-77
2023/02/18 03:19:54;;;;;;;3.80;1.90;;;12.50;76.20;;;;;;5031522;28;20183;-76
2023/02/18 03:22:29;;;;;;;3.53;1.87;;;12.50;76.20;;;;;;5044053;28;20416;-77
2023/02/18 03:24:57;;;;;;;1.47;1.37;;;12.50;76.20;;;;;;5052457;28;20468;-76
2023/02/18 03:27:27;;;;;;;2.40;1.50;;;12.40;76.40;;;;;;5048909;28;20412;-77
2023/02/18 03:30:00;;;;;;;3.27;1.80;;;12.50;76.50;;;;;;5044320;28;20486;-76
2023/02/18 03:32:28;;;;;;;2.90;1.80;;;12.40;76.50;;;;;;5044679;28;20502;-76
2023/02/18 03:35:09;;;;;;;1.80;1.63;;;12.40;76.70;;;;;;5046958;28;20478;-77
2023/02/18 03:37:39;;;;;;;2.47;1.83;;;12.30;76.70;;;;;;5034796;28;20457;-77
2023/02/18 03:40:05;;;;;;;2.63;1.70;;;12.30;77.10;;;;;;5006751;28;20424;-77
2023/02/18 03:42:31;;;;;;;1.73;1.30;;;12.20;77.30;;;;;;5023314;28;20420;-78
2023/02/18 03:44:58;;;;;;;2.27;1.60;;;12.20;77.60;;;;;;5028145;28;20965;-79
2023/02/18 03:47:24;;;;;;;2.90;1.73;;;12.10;77.70;;;;;;5023929;28;20430;-79
2023/02/18 03:49:49;;;;;;;3.87;1.97;;;12.10;77.80;;;;;;5039334;28;20450;-78
2023/02/18 03:52:15;;;;;;;2.63;1.43;;;12.00;78.00;;;;;;5040439;28;20447;-76
2023/02/18 03:54:41;;;;;;;3.00;1.80;;;12.00;78.10;;;;;;5054476;28;20200;-77
2023/02/18 03:57:07;;;;;;;2.43;1.60;;;11.90;78.40;;;;;;5058400;28;20603;-77
2023/02/18 03:59:33;;;;;;;2.70;1.80;;;11.90;78.60;;;;;;5055087;28;20438;-76
2023/02/18 04:01:59;;;;;;;2.10;1.67;;;11.80;78.90;;;;;;5037356;28;20463;-75
2023/02/18 04:04:25;;;;;;;3.50;1.67;;;11.80;78.90;;;;;;5046472;28;20455;-78
2023/02/18 04:06:51;;;;;;;2.30;1.47;;;11.80;79.00;;;;;;5032428;28;20502;-78
2023/02/18 04:09:17;;;;;;;2.33;1.87;;;11.80;79.00;;;;;;5032863;28;20420;-78
2023/02/18 04:11:42;;;;;;;1.70;1.30;;;11.80;78.90;;;;;;5032630;28;20190;-76
2023/02/18 04:14:08;;;;;;;2.53;1.70;;;11.80;79.00;;;;;;5030727;28;20209;-77
2023/02/18 04:16:34;;;;;;;2.73;1.70;;;11.80;79.00;;;;;;5033435;28;20185;-78
2023/02/18 04:19:00;;;;;;;2.07;1.50;;;11.90;78.90;;;;;;5036684;28;20430;-79
2023/02/18 04:21:25;;;;;;;3.60;1.90;;;12.00;78.40;;;;;;5033663;28;20217;-76
2023/02/18 04:23:51;;;;;;;2.57;1.73;;;12.00;78.30;;;;;;5029631;28;20201;-76
2023/02/18 04:26:16;;;;;;;3.70;1.93;;;12.00;78.10;;;;;;5037305;28;20193;-77
2023/02/18 04:28:42;;;;;;;1.93;1.50;;;12.00;78.10;;;;;;5025932;28;20258;-77
2023/02/18 04:31:07;;;;;;;3.07;1.70;;;11.90;78.00;;;;;;5040047;28;20186;-79
2023/02/18 04:33:33;;;;;;;3.33;1.93;;;11.90;78.00;;;;;;5015186;28;20211;-79
2023/02/18 04:35:58;;;;;;;3.47;2.00;;;11.90;78.10;;;;;;5038364;28;20192;-77
2023/02/18 04:38:24;;;;;;;2.90;1.90;;;11.80;78.30;;;;;;5036354;28;20205;-77
2023/02/18 04:40:50;;;;;;;2.13;1.60;;;11.80;78.40;;;;;;5034754;28;20213;-78
2023/02/18 04:43:15;;;;;;;3.00;1.97;;;11.80;78.60;;;;;;5034596;28;20649;-78
2023/02/18 04:45:41;;;;;;;2.20;1.90;;;11.80;78.40;;;;;;5029168;28;20682;-78
2023/02/18 04:48:06;;;;;;;3.00;1.80;;;11.70;78.90;;;;;;5033653;28;20187;-77
2023/02/18 04:50:32;;;;;;;2.73;2.00;;;11.80;78.90;;;;;;5034347;28;20188;-76
2023/02/18 04:52:58;;;;;;;4.47;2.17;;;11.70;78.60;;;;;;5032443;28;20196;-78
2023/02/18 04:55:24;;;;;;;2.30;1.60;;;11.70;78.90;;;;;;5024438;28;20466;-77
2023/02/18 04:57:49;;;;;;;3.23;1.73;;;11.70;78.70;;;;;;5029787;28;20223;-77
2023/02/18 05:00:17;;;;;;;2.57;1.90;;;11.70;79.00;;;;;;5033821;28;20243;-78
2023/02/18 05:02:43;;;;;;;2.30;1.77;;;11.70;78.90;;;;;;5017025;28;20209;-77
2023/02/18 05:05:08;;;;;;;2.70;1.90;;;11.60;78.90;;;;;;5019407;28;20479;-78
2023/02/18 05:07:34;;;;;;;1.90;1.70;;;11.60;78.70;;;;;;5038996;28;20223;-77
2023/02/18 05:09:59;;;;;;;1.63;1.50;;;11.60;78.70;;;;;;5032374;28;20607;-77
2023/02/18 05:12:25;;;;;;;3.77;2.43;;;11.60;78.70;;;;;;5041459;28;20250;-79
2023/02/18 05:14:51;;;;;;;6.93;2.00;;;11.60;78.60;;;;;;5033172;28;20209;-78
2023/02/18 05:17:16;;;;;;;5.77;2.10;;;11.60;78.70;;;;;;5032910;28;20192;-76
2023/02/18 05:19:42;;;;;;;2.43;1.70;;;11.60;78.70;;;;;;5030309;28;20706;-76
2023/02/18 05:22:07;;;;;;;2.80;1.93;;;11.60;78.70;;;;;;5035066;28;20252;-78
2023/02/18 05:24:33;;;;;;;2.80;1.97;;;11.60;78.90;;;;;;5030666;28;20208;-78
2023/02/18 05:26:59;;;;;;;2.77;1.70;;;11.70;78.70;;;;;;5039050;28;20259;-76
2023/02/18 05:29:24;;;;;;;3.50;1.97;;;11.70;78.70;;;;;;5012865;28;20188;-77
2023/02/18 05:31:50;;;;;;;2.60;1.90;;;11.70;78.70;;;;;;5016633;28;20196;-76
2023/02/18 05:34:16;;;;;;;3.43;1.97;;;11.60;79.00;;;;;;5038852;28;20688;-77
2023/02/18 05:36:42;;;;;;;2.27;1.73;;;11.60;79.30;;;;;;5027669;28;20528;-76
2023/02/18 05:39:07;;;;;;;2.10;1.80;;;11.50;79.60;;;;;;5013005;28;20208;-78
2023/02/18 05:41:33;;;;;;;2.30;1.60;;;11.50;79.70;;;;;;5032043;28;20292;-77
2023/02/18 05:44:40;;;;;;;2.93;1.57;;;11.50;79.90;;;;;;5030833;28;20224;-77
2023/02/18 05:46:47;;;;;;;3.27;1.70;;;11.50;80.00;;;;;;5016351;28;20219;-77
2023/02/18 05:49:12;;;;;;;3.00;1.73;;;11.50;80.20;;;;;;5035468;28;20455;-76
2023/02/18 05:51:38;;;;;;;2.90;1.60;;;11.50;80.50;;;;;;5037675;28;20227;-77
2023/02/18 05:54:04;;;;;;;2.23;1.50;;;11.50;80.50;;;;;;5026326;28;20231;-78
2023/02/18 05:56:30;;;;;;;2.23;1.40;;;11.50;80.60;;;;;;5039036;28;20664;-78
2023/02/18 05:58:55;;;;;;;2.60;2.07;;;11.50;80.30;;;;;;5031275;28;20507;-76
2023/02/18 06:01:21;;;;;;;3.43;1.60;;;11.50;80.20;;;;;;5033006;28;20208;-77
2023/02/18 06:03:46;;;;;;;3.07;2.00;;;11.60;80.20;;;;;;5030905;28;20292;-77
2023/02/18 06:06:12;;;;;;;2.13;1.70;;;11.60;80.00;;;;;;5007337;28;20182;-76
2023/02/18 06:08:38;;;;;;;2.20;1.70;;;11.60;80.00;;;;;;5032285;28;20189;-76
2023/02/18 06:11:03;;;;;;;3.03;1.93;;;11.60;80.00;;;;;;5028631;28;20185;-77
2023/02/18 06:13:29;;;;;;;2.80;1.60;;;11.60;80.00;;;;;;5029342;28;20642;-78
2023/02/18 06:15:54;;;;;;;2.40;1.73;;;11.60;80.00;;;;;;5037033;28;20177;-77
2023/02/18 06:18:21;;;;;;;1.67;1.57;;;11.70;80.00;;;;;;5037487;28;20200;-77
2023/02/18 06:20:48;;;;;;;2.87;1.77;;;11.70;79.90;;;;;;5037406;28;20275;-79
2023/02/18 06:23:13;;;;;;;3.03;1.70;;;11.70;80.00;;;;;;5028749;28;20421;-76
2023/02/18 06:25:39;;;;;;;2.40;1.70;;;11.70;80.00;;;;;;5044833;28;20462;-76
2023/02/18 06:28:05;;;;;;;3.13;2.10;;;11.70;80.00;;;;;;5049090;28;20419;-75
2023/02/18 06:30:30;;;;;;;1.93;1.33;;;11.70;80.00;;;;;;5036086;28;20188;-77
2023/02/18 06:32:56;;;;;;;3.53;2.20;;;11.60;80.00;;;;;;5032719;28;20189;-79
2023/02/18 06:35:22;;;;;;;1.37;1.30;;;11.60;80.20;;;;;;5026353;28;20220;-77
2023/02/18 06:37:47;;;;;;;3.00;2.03;;;11.60;80.20;;;;;;5044995;28;20201;-76
2023/02/18 06:40:13;;;;;;;5.77;2.00;;;11.70;80.20;;;;;;5031164;28;20187;-80
2023/02/18 06:42:39;;;;;;;2.67;1.70;;;11.70;79.90;;;;;;5042143;28;20271;-77
2023/02/18 06:45:05;;;;;;;3.23;1.80;;;11.80;79.70;;;;;;5037892;28;20201;-78
2023/02/18 06:47:31;;;;;;;3.30;1.93;;;11.80;79.60;;;;;;5016835;28;20188;-77
2023/02/18 06:49:57;;;;;;;3.83;2.20;;;11.80;79.50;;;;;;5034548;28;20447;-77
2023/02/18 06:52:23;;;;;;;2.10;1.77;;;11.90;79.60;;;;;;5028581;28;20424;-77
2023/02/18 06:54:48;;;;;;;2.93;1.83;;;11.80;79.30;;;;;;5034929;28;20200;-76
2023/02/18 06:57:14;;;;;;;2.73;1.90;;;11.90;79.30;;;;;;5036822;28;20189;-80
2023/02/18 06:59:39;;;;;;;4.57;2.20;;;11.90;79.30;;;;;;5034297;28;20185;-77
2023/02/18 07:02:05;;;;;;;2.23;1.80;;;11.90;79.20;;;;;;5030037;28;20217;-77
2023/02/18 07:04:31;;;;;;;2.30;1.80;;;12.00;79.00;;;;;;5039613;28;20204;-79
2023/02/18 07:06:56;;;;;;;4.63;1.93;;;12.00;79.00;;;;;;5039498;28;20424;-81
2023/02/18 07:09:22;;;;;;;4.00;2.20;;;12.00;78.70;;;;;;5053119;28;20197;-79
2023/02/18 07:11:48;;;;;;;3.30;2.27;;;12.00;78.60;;;;;;5042848;28;20658;-79
2023/02/18 07:14:13;;;;;;;3.77;2.10;;;12.00;78.60;;;;;;5035870;28;20209;-80
2023/02/18 07:16:39;;;;;;;2.77;1.90;;;12.10;78.60;;;;;;5032417;28;20663;-81
2023/02/18 07:19:04;;;;;;;3.13;1.80;;;12.10;78.30;;;;;;5033589;28;20177;-80
2023/02/18 07:21:30;;;;;;;7.07;3.03;;;12.20;77.80;;;;;;5034102;28;20212;-80
2023/02/18 07:23:55;;;;;;;5.30;1.97;;;12.20;77.70;;;;;;5028534;28;20232;-80
2023/02/18 07:26:21;;;;;;;2.90;1.90;;;12.30;77.60;;;;;;5037181;28;20189;-80
2023/02/18 07:28:47;;;;;;;3.70;1.97;;;12.30;77.40;;;;;;5038237;28;20192;-80
2023/02/18 07:31:12;;;;;;;3.90;2.07;;;12.30;77.40;;;;;;5038836;28;20185;-81
2023/02/18 07:33:38;;;;;;;2.50;2.10;;;12.40;77.30;;;;;;5047224;28;20356;-80
2023/02/18 07:36:04;;;;;;;4.47;2.07;;;12.40;77.00;;;;;;5045222;28;20189;-80
2023/02/18 07:38:30;;;;;;;2.90;1.90;;;12.50;76.80;;;;;;5037197;28;20208;-81
2023/02/18 07:40:57;;;;;;;3.13;1.80;;;12.50;76.70;;;;;;5039384;28;20466;-81
2023/02/18 07:43:22;;;;;;;3.90;2.13;;;12.50;76.70;;;;;;5029694;28;20868;-79
2023/02/18 07:45:48;;;;;;;3.03;2.07;;;12.50;76.80;;;;;;5039012;28;20427;-81
2023/02/18 07:48:15;;;;;;;4.50;2.17;;;12.50;76.70;;;;;;5023979;28;20185;-80
2023/02/18 07:50:42;;;;;;;2.20;1.70;;;12.50;76.80;;;;;;5044401;28;20195;-80
2023/02/18 07:53:10;;;;;;;7.10;2.60;;;12.60;76.70;;;;;;5026921;28;20425;-75
2023/02/18 07:55:49;;;;;;;4.27;2.50;;;12.60;76.70;;;;;;5040721;28;20466;-76
2023/02/18 07:58:26;;;;;;;3.57;2.27;;;12.70;76.40;;;;;;5041893;28;20477;-75
2023/02/18 08:00:53;;;;;;;3.70;2.30;;;12.70;76.10;;;;;;5019702;28;20500;-75
2023/02/18 08:03:21;;;;;;;2.57;1.90;;;12.70;75.90;;;;;;5052214;28;20864;-76
2023/02/18 08:05:48;;;;;;;3.53;2.37;;;12.80;75.70;;;;;;5041743;28;20488;-77
2023/02/18 08:08:16;;;;;;;7.63;2.00;;;12.80;75.70;;;;;;5050308;28;20434;-75
2023/02/18 08:10:42;;;;;;;3.00;1.73;;;12.80;75.70;;;;;;5034340;28;20435;-77
2023/02/18 08:13:08;;;;;;;3.77;2.20;;;12.90;75.40;;;;;;5037499;28;20450;-74
2023/02/18 08:15:34;;;;;;;3.27;2.10;;;12.90;75.40;;;;;;5051755;28;20513;-76
2023/02/18 08:18:00;;;;;;;5.37;2.67;;;12.90;75.20;;;;;;5048184;28;20514;-75
2023/02/18 08:20:26;;;;;;;3.57;2.33;;;12.90;75.20;;;;;;5021400;28;20206;-75
2023/02/18 08:22:51;;;;;;;3.70;2.03;;;12.90;75.10;;;;;;5020044;28;20416;-75
2023/02/18 08:25:17;;;;;;;6.20;2.17;;;13.00;74.90;;;;;;5018066;28;20460;-75
2023/02/18 08:27:42;;;;;;;3.10;1.70;;;13.00;74.90;;;;;;5043753;28;20267;-76
2023/02/18 08:30:08;;;;;;;4.30;2.03;;;13.00;74.80;;;;;;5033065;28;20607;-75
2023/02/18 08:32:34;;;;;;;8.37;2.10;;;13.10;74.80;;;;;;5050449;28;20196;-75
2023/02/18 08:35:00;;;;;;;4.73;2.17;;;13.10;74.50;;;;;;5037237;28;20581;-75
2023/02/18 08:37:26;;;;;;;4.40;1.80;;;13.10;74.30;;;;;;5038620;28;20211;-76
2023/02/18 08:39:51;;;;;;;4.30;2.07;;;13.10;74.50;;;;;;5037389;28;20181;-75
2023/02/18 08:42:17;;;;;;;3.90;1.90;;;13.20;74.20;;;;;;5032787;28;20585;-76
2023/02/18 08:44:43;;;;;;;6.07;2.40;;;13.20;73.90;;;;;;5026740;28;20245;-76
2023/02/18 08:47:08;;;;;;;3.30;2.10;;;13.20;73.70;;;;;;5035150;28;20188;-77
2023/02/18 08:49:35;;;;;;;3.83;1.97;;;13.20;73.70;;;;;;5031750;28;20212;-76
2023/02/18 08:52:02;;;;;;;3.03;1.93;;;13.30;73.60;;;;;;5032105;28;20193;-75
2023/02/18 08:54:27;;;;;;;3.73;2.00;;;13.30;73.30;;;;;;5031379;28;20459;-75
2023/02/18 08:56:56;;;;;;;2.53;1.80;;;13.40;73.00;;;;;;5035390;28;20518;-75
2023/02/18 08:59:22;;;;;;;2.07;1.77;;;13.40;73.00;;;;;;5031844;28;20639;-76
2023/02/18 09:01:48;;;;;;;3.33;2.03;;;13.50;72.90;;;;;;5037576;28;20470;-77
2023/02/18 09:04:14;;;;;;;5.10;1.73;;;13.50;72.70;;;;;;5045254;28;20758;-76
2023/02/18 09:06:39;;;;;;;3.57;1.70;;;13.60;72.60;;;;;;5037266;28;20191;-75
2023/02/18 09:09:05;;;;;;;2.37;1.80;;;13.60;72.40;;;;;;5035468;28;20193;-75
2023/02/18 09:11:31;;;;;;;3.00;1.50;;;13.60;72.40;;;;;;5039236;28;20188;-77
2023/02/18 09:13:56;;;;;;;7.00;2.00;;;13.70;72.30;;;;;;5040876;28;20206;-75
2023/02/18 09:16:22;;;;;;;3.87;1.70;;;13.70;72.10;;;;;;5049499;28;20432;-75
2023/02/18 09:18:48;;;;;;;3.93;1.90;;;13.70;72.10;;;;;;5016576;28;20205;-74
2023/02/18 09:21:15;;;;;;;2.83;2.10;;;13.70;72.10;;;;;;5012740;28;20978;-75
2023/02/18 09:23:41;;;;;;;2.00;1.70;;;13.80;71.80;;;;;;5033031;28;20472;-77
2023/02/18 09:26:09;;;;;;;2.57;1.53;;;13.70;71.70;;;;;;5021410;28;20499;-78
2023/02/18 09:28:35;;;;;;;3.27;2.07;;;13.80;71.70;;;;;;5046198;28;20420;-77
2023/02/18 09:31:12;;;;;;;2.40;1.57;;;13.80;71.60;;;;;;5038339;28;20883;-76
2023/02/18 09:33:40;;;;;;;2.27;1.57;;;14.00;71.40;;;;;;5007342;28;20427;-76
2023/02/18 09:36:07;;;;;;;3.93;1.53;;;14.00;71.10;;;;;;5046012;28;20446;-78
2023/02/18 09:38:33;;;;;;;3.23;1.60;;;14.00;71.10;;;;;;5032409;28;20849;-78
2023/02/18 09:41:01;;;;;;;4.63;1.80;;;14.00;71.10;;;;;;5037856;28;20461;-77
2023/02/18 09:43:41;;;;;;;3.03;1.83;;;13.90;71.10;;;;;;5033995;28;20427;-77
2023/02/18 09:46:25;;;;;;;2.80;1.70;;;13.90;71.10;;;;;;5028714;28;20503;-78
2023/02/18 09:48:51;;;;;;;4.40;1.60;;;13.90;71.00;;;;;;5031357;28;20428;-78
2023/02/18 09:51:18;;;;;;;2.60;1.80;;;14.00;71.10;;;;;;5048280;28;20422;-76
2023/02/18 09:53:45;;;;;;;3.60;1.77;;;14.00;70.80;;;;;;5034624;28;20471;-77
2023/02/18 09:56:21;;;;;;;9.50;2.77;;;14.20;70.80;;;;;;5023280;28;20799;-77
2023/02/18 09:58:48;;;;;;;4.10;1.93;;;14.20;70.70;;;;;;5028202;28;20432;-78
2023/02/18 10:01:16;;;;;;;4.10;1.50;;;14.30;70.20;;;;;;5033884;28;20460;-77
2023/02/18 10:03:43;;;;;;;2.90;1.70;;;14.20;70.50;;;;;;5032054;28;20447;-78
2023/02/18 10:06:21;;;;;;;3.57;1.93;;;14.10;70.80;;;;;;5042486;28;20423;-78
2023/02/18 10:08:49;;;;;;;3.10;1.70;;;14.00;70.80;;;;;;5042840;28;20430;-76
2023/02/18 10:11:33;;;;;;;3.57;1.60;;;13.90;71.10;;;;;;5022872;28;20553;-76
2023/02/18 10:14:01;;;;;;;2.50;1.67;;;14.10;71.10;;;;;;5032913;28;20491;-75
2023/02/18 10:16:28;;;;;;;3.63;1.60;;;14.10;71.00;;;;;;5038348;28;20425;-78
2023/02/18 10:18:58;;;;;;;1.57;1.43;;;14.10;70.80;;;;;;5027841;28;20507;-76
2023/02/18 10:21:31;;;;;;;3.40;1.73;;;14.00;71.00;;;;;;5033580;28;20470;-78
2023/02/18 10:24:31;;;;;;;3.97;2.20;;;14.00;71.00;;;;;;5034330;28;20460;-76
2023/02/18 10:26:57;;;;;;;7.03;1.70;;;14.20;70.80;;;;;;5037691;28;20524;-76
2023/02/18 10:29:24;;;;;;;3.00;2.00;;;14.10;70.70;;;;;;5034580;28;20911;-78
2023/02/18 10:31:58;;;;;;;7.33;1.90;;;14.10;71.00;;;;;;5011542;28;20456;-77
2023/02/18 10:34:56;;;;;;;2.20;1.40;;;14.20;70.80;;;;;;5032978;28;20535;-77
2023/02/18 10:37:39;;;;;;;2.90;1.40;;;14.30;70.50;;;;;;4983332;28;20460;-77
2023/02/18 10:40:14;;;;;;;2.93;1.80;;;14.40;70.20;;;;;;5034334;28;20425;-76
2023/02/18 10:43:02;;;;;;;1.90;1.50;;;14.50;69.80;;;;;;5008351;28;20441;-75
2023/02/18 10:45:59;;;;;;;4.43;1.70;;;14.40;69.80;;;;;;5035343;28;20484;-78
2023/02/18 10:48:54;;;;;;;1.83;1.33;;;14.40;69.90;;;;;;5040336;28;20421;-77
2023/02/18 10:51:24;;;;;;;2.43;1.40;;;14.40;69.90;;;;;;5034523;28;20429;-77
2023/02/18 10:53:52;;;;;;;2.10;1.53;;;14.40;69.70;;;;;;5030888;28;20492;-77
2023/02/18 10:56:42;;;;;;;4.87;1.90;;;14.50;69.70;;;;;;5022322;28;20441;-77
2023/02/18 10:59:30;;;;;;;3.13;1.50;;;14.50;69.50;;;;;;5017560;28;20427;-76
2023/02/18 11:02:02;;;;;;;3.40;1.80;;;14.50;69.50;;;;;;5032630;28;20458;-77
2023/02/18 11:04:39;;;;;;;3.43;1.50;;;14.50;69.20;;;;;;5014340;28;20780;-77
2023/02/18 11:07:15;;;;;;;4.93;1.53;;;14.50;69.20;;;;;;5028321;28;20496;-77
2023/02/18 11:09:53;;;;;;;2.70;1.57;;;14.60;69.40;;;;;;5033561;28;20444;-77
2023/02/18 11:12:28;;;;;;;3.20;1.43;;;14.50;69.20;;;;;;5032656;28;20421;-77
2023/02/18 11:15:18;;;;;;;1.67;1.33;;;14.50;69.20;;;;;;5037680;28;20525;-76
2023/02/18 11:17:46;;;;;;;2.00;1.30;;;14.50;69.40;;;;;;5025481;28;20869;-78
2023/02/18 11:20:21;;;;;;;1.87;1.20;;;14.50;69.20;;;;;;5020000;28;20496;-76
2023/02/18 11:22:48;;;;;;;2.53;1.43;;;14.60;69.40;;;;;;5026013;28;20491;-76
2023/02/18 11:25:23;;;;;;;1.77;1.30;;;14.60;69.10;;;;;;5030608;28;20453;-76
2023/02/18 11:27:57;;;;;;;3.20;1.37;;;14.70;68.80;;;;;;5038277;28;20430;-78
2023/02/18 11:30:29;;;;;;;3.00;1.33;;;14.80;68.60;;;;;;5035548;28;20580;-77
2023/02/18 11:33:00;;;;;;;2.60;1.50;;;14.80;68.50;;;;;;5043297;28;20973;-76
2023/02/18 11:35:29;;;;;;;2.60;1.53;;;14.90;68.60;;;;;;5041709;28;20807;-78
2023/02/18 11:38:00;;;;;;;1.77;1.30;;;15.00;68.00;;;;;;5051057;28;20510;-77
2023/02/18 11:40:33;;;;;;;2.70;1.33;;;14.90;68.00;;;;;;5039198;28;20414;-78
2023/02/18 11:43:10;;;;;;;1.93;1.47;;;14.90;67.70;;;;;;5039522;28;20921;-76
2023/02/18 11:45:36;;;;;;;2.07;1.30;;;15.10;67.20;;;;;;5033909;28;20487;-77
2023/02/18 11:48:23;;;;;;;2.07;1.33;;;14.90;67.20;;;;;;5046532;28;20447;-76
2023/02/18 11:50:52;;;;;;;3.60;1.90;;;15.00;67.00;;;;;;5044100;28;20186;-78
2023/02/18 11:53:36;;;;;;;1.73;1.47;;;15.10;66.70;;;;;;5050463;28;20430;-78
2023/02/18 11:56:15;;;;;;;3.43;1.43;;;15.10;66.70;;;;;;5049346;28;20476;-77
2023/02/18 11:58:46;;;;;;;2.93;1.40;;;15.20;66.40;;;;;;5047610;28;20414;-76
2023/02/18 12:01:20;;;;;;;2.43;1.50;;;15.10;66.10;;;;;;5067468;28;20472;-77
2023/02/18 12:03:59;;;;;;;2.57;1.50;;;15.20;66.30;;;;;;5034599;28;20563;-77
2023/02/18 12:06:43;;;;;;;3.33;1.93;;;15.40;65.80;;;;;;5053215;28;20403;-76
2023/02/18 12:09:28;;;;;;;1.87;1.50;;;15.30;66.30;;;;;;5048232;28;20426;-78
2023/02/18 12:12:02;;;;;;;2.20;1.30;;;15.20;66.60;;;;;;5051062;28;20498;-77
2023/02/18 12:14:28;;;;;;;4.30;1.50;;;15.40;66.10;;;;;;5047485;28;20450;-77
2023/02/18 12:17:10;;;;;;;2.63;1.60;;;15.30;65.60;;;;;;5045428;28;20427;-77
2023/02/18 12:20:00;;;;;;;2.10;1.60;;;15.10;66.10;;;;;;5014854;28;20434;-80
2023/02/18 12:22:29;;;;;;;2.37;1.53;;;15.20;66.40;;;;;;5059558;28;20570;-78
2023/02/18 12:25:51;;;;;;;2.73;1.43;;;15.30;66.00;;;;;;5028393;28;20456;-77
2023/02/18 12:28:32;;;;;;;3.80;2.53;;;15.40;65.30;;;;;;4968387;28;20430;-77
2023/02/18 12:31:34;;;;;;;3.50;1.83;;;15.50;65.40;;;;;;4970059;28;20453;-75
2023/02/18 12:34:02;;;;;;;1.83;1.30;;;15.70;64.80;;;;;;4955459;28;20457;-78
2023/02/18 12:36:38;;;;;;;3.00;1.90;;;15.90;64.70;;;;;;4964730;28;20827;-78
2023/02/18 12:39:20;;;;;;;5.87;2.03;;;15.90;63.80;;;;;;4960909;28;20438;-78
2023/02/18 12:42:03;;;;;;;2.43;1.50;;;15.90;63.40;;;;;;4949826;29;20471;-77
2023/02/18 12:44:37;;;;;;;3.37;1.90;;;15.80;63.70;;;;;;4952382;28;20462;-76
2023/02/18 12:47:26;;;;;;;5.00;2.40;;;15.90;63.80;;;;;;4971332;28;20426;-78
2023/02/18 12:50:31;;;;;;;3.90;1.90;;;16.00;63.40;;;;;;4956144;28;20431;-76
2023/02/18 12:53:10;;;;;;;4.90;2.57;;;15.90;63.10;;;;;;4954953;28;20440;-77
2023/02/18 12:55:48;;;;;;;4.47;2.27;;;15.90;63.40;;;;;;4964090;28;20534;-76
2023/02/18 12:58:27;;;;;;;4.93;2.10;;;16.10;63.10;;;;;;4957672;28;20429;-78
2023/02/18 13:01:07;;;;;;;5.33;2.23;;;16.10;61.70;;;;;;5041054;28;20467;-76
2023/02/18 13:03:44;;;;;;;3.20;1.90;;;16.30;61.70;;;;;;5036326;28;20460;-79
2023/02/18 13:06:15;;;;;;;4.07;1.97;;;16.00;61.70;;;;;;5039496;28;20400;-78